sensor_id;sensor_type;location;lat;lon;timestamp;pressure;altitude;pressure_sealevel;temperature;humidity
74065;BME280;62421;51.412;5.432;2022-10-18T00:00:24;102434.94;;;13.32;100.00
74065;BME280;62421;51.412;5.432;2022-10-18T00:02:49;102425.09;;;13.31;100.00
74065;BME280;62421;51.412;5.432;2022-10-18T00:05:15;102429.53;;;13.32;100.00
74065;BME280;62421;51.412;5.432;2022-10-18T00:07:40;102430.41;;;13.33;100.00
74065;BME280;62421;51.412;5.432;2022-10-18T00:10:06;102419.59;;;13.33;100.00
74065;BME280;62421;51.412;5.432;2022-10-18T00:12:34;102415.00;;;13.35;100.00
74065;BME280;62421;51.412;5.432;2022-10-18T00:14:59;102417.69;;;13.35;100.00
74065;BME280;62421;51.412;5.432;2022-10-18T00:17:25;102417.00;;;13.31;100.00
74065;BME280;62421;51.412;5.432;2022-10-18T00:19:50;102415.34;;;13.29;100.00
74065;BME280;62421;51.412;5.432;2022-10-18T00:22:15;102412.56;;;13.30;100.00
74065;BME280;62421;51.412;5.432;2022-10-18T00:24:41;102414.31;;;13.31;100.00
74065;BME280;62421;51.412;5.432;2022-10-18T00:27:06;102409.00;;;13.30;100.00
74065;BME280;62421;51.412;5.432;2022-10-18T00:29:32;102408.13;;;13.29;100.00
74065;BME280;62421;51.412;5.432;2022-10-18T00:31:57;102410.66;;;13.32;100.00
74065;BME280;62421;51.412;5.432;2022-10-18T00:34:22;102408.03;;;13.31;100.00
74065;BME280;62421;51.412;5.432;2022-10-18T00:36:47;102411.50;;;13.33;100.00
74065;BME280;62421;51.412;5.432;2022-10-18T00:39:17;102414.31;;;13.31;100.00
74065;BME280;62421;51.412;5.432;2022-10-18T00:41:44;102414.41;;;13.30;100.00
74065;BME280;62421;51.412;5.432;2022-10-18T00:46:37;102420.56;;;13.32;100.00
74065;BME280;62421;51.412;5.432;2022-10-18T00:49:18;102417.94;;;13.30;100.00
74065;BME280;62421;51.412;5.432;2022-10-18T00:51:48;102415.25;;;13.30;100.00
74065;BME280;62421;51.412;5.432;2022-10-18T00:54:15;102421.44;;;13.32;100.00
74065;BME280;62421;51.412;5.432;2022-10-18T00:56:41;102422.28;;;13.33;100.00
74065;BME280;62421;51.412;5.432;2022-10-18T00:59:09;102430.25;;;13.36;100.00
74065;BME280;62421;51.412;5.432;2022-10-18T01:01:36;102419.53;;;13.35;100.00
74065;BME280;62421;51.412;5.432;2022-10-18T01:04:01;102421.25;;;13.36;100.00
74065;BME280;62421;51.412;5.432;2022-10-18T01:06:27;102429.44;;;13.34;100.00
74065;BME280;62421;51.412;5.432;2022-10-18T01:09:21;102434.75;;;13.36;100.00
74065;BME280;62421;51.412;5.432;2022-10-18T01:14:41;102431.28;;;13.34;100.00
74065;BME280;62421;51.412;5.432;2022-10-18T01:23:03;102433.00;;;13.35;100.00
74065;BME280;62421;51.412;5.432;2022-10-18T01:28:51;102422.22;;;13.35;100.00
74065;BME280;62421;51.412;5.432;2022-10-18T01:31:22;102426.91;;;13.31;100.00
74065;BME280;62421;51.412;5.432;2022-10-18T01:33:52;102433.28;;;13.30;100.00
74065;BME280;62421;51.412;5.432;2022-10-18T01:38:53;102430.50;;;13.31;100.00
74065;BME280;62421;51.412;5.432;2022-10-18T01:41:22;102428.59;;;13.34;100.00
74065;BME280;62421;51.412;5.432;2022-10-18T01:43:51;102435.72;;;13.35;100.00
74065;BME280;62421;51.412;5.432;2022-10-18T01:46:20;102435.78;;;13.33;100.00
74065;BME280;62421;51.412;5.432;2022-10-18T01:48:47;102438.41;;;13.35;100.00
74065;BME280;62421;51.412;5.432;2022-10-18T01:51:12;102434.75;;;13.36;100.00
74065;BME280;62421;51.412;5.432;2022-10-18T01:53:37;102434.84;;;13.34;100.00
74065;BME280;62421;51.412;5.432;2022-10-18T01:56:17;102432.16;;;13.34;100.00
74065;BME280;62421;51.412;5.432;2022-10-18T02:07:13;102429.59;;;13.31;100.00
74065;BME280;62421;51.412;5.432;2022-10-18T02:09:50;102428.75;;;13.30;100.00
74065;BME280;62421;51.412;5.432;2022-10-18T02:12:17;102418.94;;;13.29;100.00
74065;BME280;62421;51.412;5.432;2022-10-18T02:14:44;102429.72;;;13.29;100.00
74065;BME280;62421;51.412;5.432;2022-10-18T02:17:11;102430.56;;;13.30;100.00
74065;BME280;62421;51.412;5.432;2022-10-18T02:19:41;102426.13;;;13.29;100.00
74065;BME280;62421;51.412;5.432;2022-10-18T02:22:10;102435.00;;;13.31;100.00
74065;BME280;62421;51.412;5.432;2022-10-18T02:24:38;102434.06;;;13.32;100.00
74065;BME280;62421;51.412;5.432;2022-10-18T02:27:06;102443.03;;;13.32;100.00
74065;BME280;62421;51.412;5.432;2022-10-18T02:29:32;102426.91;;;13.31;100.00
74065;BME280;62421;51.412;5.432;2022-10-18T02:32:05;102435.91;;;13.31;100.00
74065;BME280;62421;51.412;5.432;2022-10-18T02:34:37;102443.09;;;13.31;100.00
74065;BME280;62421;51.412;5.432;2022-10-18T02:37:03;102429.72;;;13.29;100.00
74065;BME280;62421;51.412;5.432;2022-10-18T02:39:32;102438.69;;;13.30;100.00
74065;BME280;62421;51.412;5.432;2022-10-18T02:41:58;102442.16;;;13.32;100.00
74065;BME280;62421;51.412;5.432;2022-10-18T02:44:24;102446.59;;;13.33;100.00
74065;BME280;62421;51.412;5.432;2022-10-18T02:46:49;102437.69;;;13.31;100.00
74065;BME280;62421;51.412;5.432;2022-10-18T02:49:14;102430.66;;;13.28;100.00
74065;BME280;62421;51.412;5.432;2022-10-18T02:51:40;102436.06;;;13.28;100.00
74065;BME280;62421;51.412;5.432;2022-10-18T02:54:05;102425.25;;;13.28;100.00
74065;BME280;62421;51.412;5.432;2022-10-18T02:56:32;102435.13;;;13.29;100.00
74065;BME280;62421;51.412;5.432;2022-10-18T02:58:57;102436.91;;;13.29;100.00
74065;BME280;62421;51.412;5.432;2022-10-18T03:01:23;102433.34;;;13.28;100.00
74065;BME280;62421;51.412;5.432;2022-10-18T03:03:48;102448.72;;;13.26;100.00
74065;BME280;62421;51.412;5.432;2022-10-18T03:06:13;102446.88;;;13.27;100.00
74065;BME280;62421;51.412;5.432;2022-10-18T03:08:39;102439.69;;;13.27;100.00
74065;BME280;62421;51.412;5.432;2022-10-18T03:11:04;102440.56;;;13.28;100.00
74065;BME280;62421;51.412;5.432;2022-10-18T03:13:29;102433.34;;;13.28;100.00
74065;BME280;62421;51.412;5.432;2022-10-18T03:15:55;102435.00;;;13.31;100.00
74065;BME280;62421;51.412;5.432;2022-10-18T03:18:20;102429.59;;;13.31;100.00
74065;BME280;62421;51.412;5.432;2022-10-18T03:20:45;102443.09;;;13.31;100.00
74065;BME280;62421;51.412;5.432;2022-10-18T03:23:11;102438.59;;;13.31;100.00
74065;BME280;62421;51.412;5.432;2022-10-18T03:25:36;102437.53;;;13.34;100.00
74065;BME280;62421;51.412;5.432;2022-10-18T03:28:01;102443.88;;;13.33;100.00
74065;BME280;62421;51.412;5.432;2022-10-18T03:30:27;102455.47;;;13.35;100.00
74065;BME280;62421;51.412;5.432;2022-10-18T03:32:52;102447.28;;;13.37;100.00
74065;BME280;62421;51.412;5.432;2022-10-18T03:35:20;102457.09;;;13.38;100.00
74065;BME280;62421;51.412;5.432;2022-10-18T03:37:46;102454.53;;;13.36;100.00
74065;BME280;62421;51.412;5.432;2022-10-18T03:40:11;102459.03;;;13.36;100.00
74065;BME280;62421;51.412;5.432;2022-10-18T03:42:37;102458.16;;;13.35;100.00
74065;BME280;62421;51.412;5.432;2022-10-18T03:45:03;102463.56;;;13.35;100.00
74065;BME280;62421;51.412;5.432;2022-10-18T03:47:28;102450.06;;;13.35;100.00
74065;BME280;62421;51.412;5.432;2022-10-18T03:49:54;102446.50;;;13.35;100.00
74065;BME280;62421;51.412;5.432;2022-10-18T03:52:19;102449.19;;;13.35;100.00
74065;BME280;62421;51.412;5.432;2022-10-18T03:54:44;102440.31;;;13.32;100.00
74065;BME280;62421;51.412;5.432;2022-10-18T03:57:10;102441.19;;;13.33;100.00
74065;BME280;62421;51.412;5.432;2022-10-18T03:59:35;102435.00;;;13.31;100.00
74065;BME280;62421;51.412;5.432;2022-10-18T04:02:00;102434.22;;;13.29;100.00
74065;BME280;62421;51.412;5.432;2022-10-18T04:04:25;102439.84;;;13.24;100.00
74065;BME280;62421;51.412;5.432;2022-10-18T04:06:51;102437.00;;;13.27;100.00
74065;BME280;62421;51.412;5.432;2022-10-18T04:09:16;102429.06;;;13.24;100.00
74065;BME280;62421;51.412;5.432;2022-10-18T04:11:41;102434.72;;;13.20;100.00
74065;BME280;62421;51.412;5.432;2022-10-18T04:14:07;102434.78;;;13.18;100.00
74065;BME280;62421;51.412;5.432;2022-10-18T04:16:32;102443.00;;;13.17;100.00
74065;BME280;62421;51.412;5.432;2022-10-18T04:18:57;102441.31;;;13.14;100.00
74065;BME280;62421;51.412;5.432;2022-10-18T04:21:23;102439.66;;;13.11;100.00
74065;BME280;62421;51.412;5.432;2022-10-18T04:23:48;102449.56;;;13.11;100.00
74065;BME280;62421;51.412;5.432;2022-10-18T04:26:15;102452.34;;;13.09;100.00
74065;BME280;62421;51.412;5.432;2022-10-18T04:28:41;102445.31;;;13.07;100.00
74065;BME280;62421;51.412;5.432;2022-10-18T04:31:08;102451.75;;;13.04;100.00
74065;BME280;62421;51.412;5.432;2022-10-18T04:33:33;102447.28;;;13.03;100.00
74065;BME280;62421;51.412;5.432;2022-10-18T04:35:59;102436.63;;;13.02;100.00
74065;BME280;62421;51.412;5.432;2022-10-18T04:38:24;102439.47;;;12.99;100.00
74065;BME280;62421;51.412;5.432;2022-10-18T04:40:49;102452.00;;;13.00;100.00
74065;BME280;62421;51.412;5.432;2022-10-18T04:43:15;102452.06;;;12.98;100.00
74065;BME280;62421;51.412;5.432;2022-10-18T04:45:40;102451.28;;;12.96;100.00
74065;BME280;62421;51.412;5.432;2022-10-18T04:48:06;102459.44;;;12.95;100.00
74065;BME280;62421;51.412;5.432;2022-10-18T04:50:31;102454.97;;;12.95;100.00
74065;BME280;62421;51.412;5.432;2022-10-18T04:52:56;102452.06;;;12.98;100.00
74065;BME280;62421;51.412;5.432;2022-10-18T04:55:22;102457.53;;;12.97;100.00
74065;BME280;62421;51.412;5.432;2022-10-18T04:57:47;102462.78;;;13.00;100.00
74065;BME280;62421;51.412;5.432;2022-10-18T05:00:13;102464.78;;;12.96;100.00
74065;BME280;62421;51.412;5.432;2022-10-18T05:02:38;102468.50;;;12.94;100.00
74065;BME280;62421;51.412;5.432;2022-10-18T05:05:04;102462.25;;;12.93;100.00
74065;BME280;62421;51.412;5.432;2022-10-18T05:07:29;102457.88;;;12.90;100.00
74065;BME280;62421;51.412;5.432;2022-10-18T05:09:54;102464.31;;;12.88;100.00
74065;BME280;62421;51.412;5.432;2022-10-18T05:12:20;102468.84;;;12.87;100.00
74065;BME280;62421;51.412;5.432;2022-10-18T05:14:46;102463.53;;;12.86;100.00
74065;BME280;62421;51.412;5.432;2022-10-18T05:17:12;102469.69;;;12.88;100.00
74065;BME280;62421;51.412;5.432;2022-10-18T05:19:37;102458.06;;;12.87;100.00
74065;BME280;62421;51.412;5.432;2022-10-18T05:22:02;102465.28;;;12.87;100.00
74065;BME280;62421;51.412;5.432;2022-10-18T05:24:28;102473.50;;;12.84;100.00
74065;BME280;62421;51.412;5.432;2022-10-18T05:26:53;102470.75;;;12.85;100.00
74065;BME280;62421;51.412;5.432;2022-10-18T05:29:18;102463.53;;;12.86;100.00
74065;BME280;62421;51.412;5.432;2022-10-18T05:31:44;102471.78;;;12.83;100.00
74065;BME280;62421;51.412;5.432;2022-10-18T05:34:09;102460.28;;;12.79;100.00
74065;BME280;62421;51.412;5.432;2022-10-18T05:36:34;102461.34;;;12.77;100.00
74065;BME280;62421;51.412;5.432;2022-10-18T05:39:02;102463.16;;;12.76;100.00
74065;BME280;62421;51.412;5.432;2022-10-18T05:41:28;102474.72;;;12.78;100.00
74065;BME280;62421;51.412;5.432;2022-10-18T05:43:53;102480.13;;;12.78;100.00
74065;BME280;62421;51.412;5.432;2022-10-18T05:46:18;102481.06;;;12.77;100.00
74065;BME280;62421;51.412;5.432;2022-10-18T05:48:48;102479.25;;;12.78;100.00
74065;BME280;62421;51.412;5.432;2022-10-18T05:51:14;102478.22;;;12.80;100.00
74065;BME280;62421;51.412;5.432;2022-10-18T05:53:39;102474.72;;;12.78;100.00
74065;BME280;62421;51.412;5.432;2022-10-18T05:56:05;102480.13;;;12.78;100.00
74065;BME280;62421;51.412;5.432;2022-10-18T05:58:31;102485.66;;;12.75;100.00
74065;BME280;62421;51.412;5.432;2022-10-18T06:00:58;102488.47;;;12.74;100.00
74065;BME280;62421;51.412;5.432;2022-10-18T06:03:23;102492.09;;;12.73;100.00
74065;BME280;62421;51.412;5.432;2022-10-18T06:05:49;102496.69;;;12.70;100.00
74065;BME280;62421;51.412;5.432;2022-10-18T06:08:14;102492.41;;;12.66;100.00
74065;BME280;62421;51.412;5.432;2022-10-18T06:10:39;102503.50;;;12.60;100.00
74065;BME280;62421;51.412;5.432;2022-10-18T06:13:05;102509.00;;;12.59;100.00
74065;BME280;62421;51.412;5.432;2022-10-18T06:15:30;102505.59;;;12.55;100.00
74065;BME280;62421;51.412;5.432;2022-10-18T06:17:56;102509.31;;;12.53;100.00
74065;BME280;62421;51.412;5.432;2022-10-18T06:20:22;102497.81;;;12.49;100.00
74065;BME280;62421;51.412;5.432;2022-10-18T06:22:51;102508.84;;;12.44;100.00
74065;BME280;62421;51.412;5.432;2022-10-18T06:25:17;102517.88;;;12.43;100.00
74065;BME280;62421;51.412;5.432;2022-10-18T06:27:42;102511.84;;;12.38;100.00
74065;BME280;62421;51.412;5.432;2022-10-18T06:30:08;102508.28;;;12.38;100.00
74065;BME280;62421;51.412;5.432;2022-10-18T06:32:34;102507.41;;;12.37;100.00
74065;BME280;62421;51.412;5.432;2022-10-18T06:34:59;102511.91;;;12.37;100.00
74065;BME280;62421;51.412;5.432;2022-10-18T06:37:24;102506.69;;;12.34;100.00
74065;BME280;62421;51.412;5.432;2022-10-18T06:39:49;102504.88;;;12.34;100.00
74065;BME280;62421;51.412;5.432;2022-10-18T06:42:15;102506.63;;;12.35;100.00
74065;BME280;62421;51.412;5.432;2022-10-18T06:44:40;102517.41;;;12.35;100.00
74065;BME280;62421;51.412;5.432;2022-10-18T06:47:06;102516.28;;;12.39;100.00
74065;BME280;62421;51.412;5.432;2022-10-18T06:49:31;102525.25;;;12.40;100.00
74065;BME280;62421;51.412;5.432;2022-10-18T06:51:57;102518.88;;;12.41;100.00
74065;BME280;62421;51.412;5.432;2022-10-18T06:54:22;102515.25;;;12.42;100.00
74065;BME280;62421;51.412;5.432;2022-10-18T06:56:47;102525.88;;;12.45;100.00
74065;BME280;62421;51.412;5.432;2022-10-18T06:59:13;102542.69;;;12.50;100.00
74065;BME280;62421;51.412;5.432;2022-10-18T07:01:38;102533.81;;;12.48;100.00
74065;BME280;62421;51.412;5.432;2022-10-18T07:04:03;102545.69;;;12.44;100.00
74065;BME280;62421;51.412;5.432;2022-10-18T07:06:29;102538.72;;;12.40;100.00
74065;BME280;62421;51.412;5.432;2022-10-18T07:08:54;102546.63;;;12.43;100.00
74065;BME280;62421;51.412;5.432;2022-10-18T07:11:22;102549.63;;;12.37;100.00
74065;BME280;62421;51.412;5.432;2022-10-18T07:13:49;102552.25;;;12.38;100.00
74065;BME280;62421;51.412;5.432;2022-10-18T07:16:17;102558.38;;;12.42;100.00
74065;BME280;62421;51.412;5.432;2022-10-18T07:18:46;102574.53;;;12.42;100.00
74065;BME280;62421;51.412;5.432;2022-10-18T07:21:14;102577.00;;;12.46;100.00
74065;BME280;62421;51.412;5.432;2022-10-18T07:23:41;102582.31;;;12.48;100.00
74065;BME280;62421;51.412;5.432;2022-10-18T07:28:37;102581.09;;;12.54;100.00
74065;BME280;62421;51.412;5.432;2022-10-18T07:31:06;102585.69;;;12.52;100.00
74065;BME280;62421;51.412;5.432;2022-10-18T07:33:33;102597.28;;;12.54;100.00
74065;BME280;62421;51.412;5.432;2022-10-18T07:36:03;102600.69;;;12.57;100.00
74065;BME280;62421;51.412;5.432;2022-10-18T07:38:28;102601.25;;;12.64;100.00
74065;BME280;62421;51.412;5.432;2022-10-18T07:40:58;102609.81;;;12.72;100.00
74065;BME280;62421;51.412;5.432;2022-10-18T07:43:24;102605.72;;;12.82;100.00
74065;BME280;62421;51.412;5.432;2022-10-18T07:45:58;102599.75;;;12.93;100.00
74065;BME280;62421;51.412;5.432;2022-10-18T07:48:24;102606.31;;;13.05;100.00
74065;BME280;62421;51.412;5.432;2022-10-18T07:50:49;102619.72;;;13.06;100.00
74065;BME280;62421;51.412;5.432;2022-10-18T07:53:14;102632.44;;;13.04;100.00
74065;BME280;62421;51.412;5.432;2022-10-18T07:55:40;102627.91;;;13.05;100.00
74065;BME280;62421;51.412;5.432;2022-10-18T07:58:05;102624.81;;;13.13;100.00
74065;BME280;62421;51.412;5.432;2022-10-18T08:00:31;102631.63;;;13.20;100.00
74065;BME280;62421;51.412;5.432;2022-10-18T08:02:57;102639.47;;;13.24;100.00
74065;BME280;62421;51.412;5.432;2022-10-18T08:05:23;102639.97;;;13.32;100.00
74065;BME280;62421;51.412;5.432;2022-10-18T08:07:48;102625.19;;;13.40;100.00
74065;BME280;62421;51.412;5.432;2022-10-18T08:10:14;102649.38;;;13.41;100.00
74065;BME280;62421;51.412;5.432;2022-10-18T08:12:39;102648.69;;;13.38;100.00
74065;BME280;62421;51.412;5.432;2022-10-18T08:15:06;102655.84;;;13.39;100.00
74065;BME280;62421;51.412;5.432;2022-10-18T08:17:31;102650.44;;;13.39;100.00
74065;BME280;62421;51.412;5.432;2022-10-18T08:19:56;102655.56;;;13.43;100.00
74065;BME280;62421;51.412;5.432;2022-10-18T08:22:22;102661.78;;;13.45;100.00
74065;BME280;62421;51.412;5.432;2022-10-18T08:24:48;102663.94;;;13.39;100.00
74065;BME280;62421;51.412;5.432;2022-10-18T08:27:14;102660.50;;;13.35;100.00
74065;BME280;62421;51.412;5.432;2022-10-18T08:29:39;102660.81;;;13.29;100.00
74065;BME280;62421;51.412;5.432;2022-10-18T08:32:04;102660.91;;;13.27;100.00
74065;BME280;62421;51.412;5.432;2022-10-18T08:34:31;102666.38;;;13.26;100.00
74065;BME280;62421;51.412;5.432;2022-10-18T08:36:57;102675.50;;;13.23;100.00
74065;BME280;62421;51.412;5.432;2022-10-18T08:39:22;102666.53;;;13.23;100.00
74065;BME280;62421;51.412;5.432;2022-10-18T08:42:07;102677.09;;;13.27;100.00
74065;BME280;62421;51.412;5.432;2022-10-18T08:44:49;102676.88;;;13.32;100.00
74065;BME280;62421;51.412;5.432;2022-10-18T08:47:16;102679.31;;;13.37;100.00
74065;BME280;62421;51.412;5.432;2022-10-18T08:49:55;102682.09;;;13.35;100.00
74065;BME280;62421;51.412;5.432;2022-10-18T08:55:00;102687.25;;;13.40;100.00
74065;BME280;62421;51.412;5.432;2022-10-18T08:57:27;102682.88;;;13.37;100.00
74065;BME280;62421;51.412;5.432;2022-10-18T08:59:52;102681.94;;;13.38;100.00
74065;BME280;62421;51.412;5.432;2022-10-18T09:02:35;102687.09;;;13.43;100.00
74065;BME280;62421;51.412;5.432;2022-10-18T09:05:21;102681.78;;;13.41;100.00
74065;BME280;62421;51.412;5.432;2022-10-18T09:08:00;102672.97;;;13.38;100.00
74065;BME280;62421;51.412;5.432;2022-10-18T09:16:02;102688.94;;;13.42;100.00
74065;BME280;62421;51.412;5.432;2022-10-18T09:21:19;102693.59;;;13.39;100.00
74065;BME280;62421;51.412;5.432;2022-10-18T09:23:49;102697.41;;;13.35;100.00
74065;BME280;62421;51.412;5.432;2022-10-18T09:26:20;102690.97;;;13.37;100.00
74065;BME280;62421;51.412;5.432;2022-10-18T09:29:02;102684.47;;;13.41;100.00
74065;BME280;62421;51.412;5.432;2022-10-18T09:31:57;102680.84;;;13.42;100.00
74065;BME280;62421;51.412;5.432;2022-10-18T09:34:50;102688.94;;;13.42;100.00
74065;BME280;62421;51.412;5.432;2022-10-18T09:37:18;102687.16;;;13.41;100.00
74065;BME280;62421;51.412;5.432;2022-10-18T09:39:47;102701.53;;;13.42;100.00
74065;BME280;62421;51.412;5.432;2022-10-18T09:42:22;102700.28;;;13.49;100.00
74065;BME280;62421;51.412;5.432;2022-10-18T09:45:01;102693.75;;;13.53;100.00
74065;BME280;62421;51.412;5.432;2022-10-18T09:47:47;102697.16;;;13.57;100.00
74065;BME280;62421;51.412;5.432;2022-10-18T09:52:51;102702.94;;;13.66;100.00
74065;BME280;62421;51.412;5.432;2022-10-18T09:55:27;102702.06;;;13.66;100.00
74065;BME280;62421;51.412;5.432;2022-10-18T09:57:58;102691.28;;;13.66;100.00
74065;BME280;62421;51.412;5.432;2022-10-18T10:00:28;102694.91;;;13.65;100.00
74065;BME280;62421;51.412;5.432;2022-10-18T10:02:56;102704.66;;;13.67;100.00
74065;BME280;62421;51.412;5.432;2022-10-18T10:05:22;102699.28;;;13.67;100.00
74065;BME280;62421;51.412;5.432;2022-10-18T10:07:48;102695.63;;;13.68;100.00
74065;BME280;62421;51.412;5.432;2022-10-18T10:10:23;102693.00;;;13.67;100.00
74065;BME280;62421;51.412;5.432;2022-10-18T10:15:33;102699.00;;;13.72;100.00
74065;BME280;62421;51.412;5.432;2022-10-18T10:18:07;102697.91;;;13.76;100.00
74065;BME280;62421;51.412;5.432;2022-10-18T10:20:44;102687.88;;;13.78;100.00
74065;BME280;62421;51.412;5.432;2022-10-18T10:23:31;102688.59;;;13.82;100.00
74065;BME280;62421;51.412;5.432;2022-10-18T10:26:02;102691.13;;;13.85;100.00
74065;BME280;62421;51.412;5.432;2022-10-18T10:28:33;102695.72;;;13.83;100.00
74065;BME280;62421;51.412;5.432;2022-10-18T10:34:18;102688.44;;;13.85;100.00
74065;BME280;62421;51.412;5.432;2022-10-18T10:36:52;102684.59;;;13.89;100.00
74065;BME280;62421;51.412;5.432;2022-10-18T10:39:20;102694.22;;;13.95;100.00
74065;BME280;62421;51.412;5.432;2022-10-18T10:41:51;102694.81;;;14.00;100.00
74065;BME280;62421;51.412;5.432;2022-10-18T10:44:22;102693.53;;;14.07;100.00
74065;BME280;62421;51.412;5.432;2022-10-18T10:46:49;102712.00;;;14.14;100.00
74065;BME280;62421;51.412;5.432;2022-10-18T10:49:18;102710.88;;;14.19;100.00
74065;BME280;62421;51.412;5.432;2022-10-18T10:51:46;102704.75;;;14.15;100.00
74065;BME280;62421;51.412;5.432;2022-10-18T10:54:27;102701.72;;;14.05;100.00
74065;BME280;62421;51.412;5.432;2022-10-18T10:59:50;102721.94;;;13.81;100.00
74065;BME280;62421;51.412;5.432;2022-10-18T11:02:33;102722.50;;;13.87;99.88
74065;BME280;62421;51.412;5.432;2022-10-18T11:05:22;102715.63;;;13.98;100.00
74065;BME280;62421;51.412;5.432;2022-10-18T11:07:51;102722.28;;;14.24;97.63
74065;BME280;62421;51.412;5.432;2022-10-18T11:10:22;102724.50;;;14.49;96.02
74065;BME280;62421;51.412;5.432;2022-10-18T11:12:55;102730.47;;;14.71;95.97
74065;BME280;62421;51.412;5.432;2022-10-18T11:15:34;102725.72;;;14.91;95.51
74065;BME280;62421;51.412;5.432;2022-10-18T11:20:48;102724.94;;;15.19;91.33
74065;BME280;62421;51.412;5.432;2022-10-18T11:23:16;102716.28;;;15.28;92.57
74065;BME280;62421;51.412;5.432;2022-10-18T11:31:13;102713.41;;;15.46;90.64
74065;BME280;62421;51.412;5.432;2022-10-18T11:40:28;102703.94;;;15.67;91.60
74065;BME280;62421;51.412;5.432;2022-10-18T11:45:45;102721.56;;;15.60;93.12
74065;BME280;62421;51.412;5.432;2022-10-18T11:48:40;102719.44;;;15.65;91.89
74065;BME280;62421;51.412;5.432;2022-10-18T11:51:17;102704.72;;;15.69;89.71
74065;BME280;62421;51.412;5.432;2022-10-18T11:56:37;102709.81;;;15.75;91.23
74065;BME280;62421;51.412;5.432;2022-10-18T11:59:28;102710.78;;;15.74;85.91
74065;BME280;62421;51.412;5.432;2022-10-18T12:02:12;102705.16;;;15.77;85.03
74065;BME280;62421;51.412;5.432;2022-10-18T12:04:44;102704.88;;;15.82;82.11
74065;BME280;62421;51.412;5.432;2022-10-18T12:07:15;102695.69;;;15.99;84.64
74065;BME280;62421;51.412;5.432;2022-10-18T12:09:45;102696.53;;;16.14;85.68
74065;BME280;62421;51.412;5.432;2022-10-18T12:14:48;102692.06;;;16.27;85.04
74065;BME280;62421;51.412;5.432;2022-10-18T12:17:34;102692.63;;;16.32;84.65
74065;BME280;62421;51.412;5.432;2022-10-18T12:20:04;102691.75;;;16.32;83.19
74065;BME280;62421;51.412;5.432;2022-10-18T12:22:35;102686.72;;;16.26;84.21
74065;BME280;62421;51.412;5.432;2022-10-18T12:25:01;102692.34;;;16.23;81.37
74065;BME280;62421;51.412;5.432;2022-10-18T12:27:35;102695.94;;;16.23;82.07
74065;BME280;62421;51.412;5.432;2022-10-18T12:30:13;102688.97;;;16.19;83.62
74065;BME280;62421;51.412;5.432;2022-10-18T12:32:42;102687.34;;;16.16;79.68
74065;BME280;62421;51.412;5.432;2022-10-18T12:35:14;102687.41;;;16.15;81.74
74065;BME280;62421;51.412;5.432;2022-10-18T12:43:07;102681.59;;;16.21;85.86
74065;BME280;62421;51.412;5.432;2022-10-18T12:45:34;102682.13;;;16.13;82.24
74065;BME280;62421;51.412;5.432;2022-10-18T12:48:37;102682.50;;;16.07;86.43
74065;BME280;62421;51.412;5.432;2022-10-18T12:53:29;102673.00;;;16.00;79.16
74065;BME280;62421;51.412;5.432;2022-10-18T13:09:28;102660.53;;;15.69;82.57
74065;BME280;62421;51.412;5.432;2022-10-18T13:15:03;102653.00;;;15.60;83.96
74065;BME280;62421;51.412;5.432;2022-10-18T13:17:50;102666.91;;;15.68;82.25
74065;BME280;62421;51.412;5.432;2022-10-18T13:20:37;102665.69;;;15.73;83.42
74065;BME280;62421;51.412;5.432;2022-10-18T13:28:45;102670.13;;;15.89;78.17
74065;BME280;62421;51.412;5.432;2022-10-18T13:39:25;102651.47;;;15.99;74.54
74065;BME280;62421;51.412;5.432;2022-10-18T13:44:37;102661.91;;;16.05;77.75
74065;BME280;62421;51.412;5.432;2022-10-18T13:55:39;102668.09;;;16.07;76.77
74065;BME280;62421;51.412;5.432;2022-10-18T14:01:26;102664.81;;;15.87;77.75
74065;BME280;62421;51.412;5.432;2022-10-18T14:03:36;102663.56;;;15.93;75.13
74065;BME280;62421;51.412;5.432;2022-10-18T14:06:15;102673.22;;;15.97;72.02
74065;BME280;62421;51.412;5.432;2022-10-18T14:11:49;102661.69;;;16.08;71.01
74065;BME280;62421;51.412;5.432;2022-10-18T14:14:15;102662.09;;;16.02;70.04
74065;BME280;62421;51.412;5.432;2022-10-18T14:19:42;102668.28;;;15.89;77.11
74065;BME280;62421;51.412;5.432;2022-10-18T14:22:16;102661.16;;;15.88;71.64
74065;BME280;62421;51.412;5.432;2022-10-18T14:24:45;102659.78;;;15.95;69.95
74065;BME280;62421;51.412;5.432;2022-10-18T14:27:17;102668.38;;;16.02;67.82
74065;BME280;62421;51.412;5.432;2022-10-18T14:29:42;102664.88;;;16.00;68.35
74065;BME280;62421;51.412;5.432;2022-10-18T14:32:10;102670.59;;;15.95;70.62
74065;BME280;62421;51.412;5.432;2022-10-18T14:34:43;102678.16;;;15.90;70.79
74065;BME280;62421;51.412;5.432;2022-10-18T14:37:18;102674.13;;;15.83;73.82
74065;BME280;62421;51.412;5.432;2022-10-18T14:39:45;102671.03;;;15.75;72.79
74065;BME280;62421;51.412;5.432;2022-10-18T14:42:18;102672.88;;;15.74;72.84
74065;BME280;62421;51.412;5.432;2022-10-18T14:44:47;102668.78;;;15.82;70.56
74065;BME280;62421;51.412;5.432;2022-10-18T14:47:24;102671.69;;;15.79;75.80
74065;BME280;62421;51.412;5.432;2022-10-18T14:49:50;102677.50;;;15.72;69.12
74065;BME280;62421;51.412;5.432;2022-10-18T14:52:25;102664.97;;;15.70;67.58
74065;BME280;62421;51.412;5.432;2022-10-18T14:54:53;102673.03;;;15.71;66.28
74065;BME280;62421;51.412;5.432;2022-10-18T14:57:26;102665.59;;;15.75;66.37
74065;BME280;62421;51.412;5.432;2022-10-18T14:59:57;102667.03;;;15.81;64.72
74065;BME280;62421;51.412;5.432;2022-10-18T15:02:24;102669.94;;;15.77;66.87